createdAt,value
2018-07-15T00:00:27.661Z,20.20
2018-07-15T00:02:56.194Z,20.20
2018-07-15T00:05:24.750Z,20.20
2018-07-15T00:07:53.356Z,20.20
2018-07-15T00:10:21.877Z,20.20
2018-07-15T00:12:50.410Z,20.20
2018-07-15T00:15:18.930Z,20.10
2018-07-15T00:17:47.474Z,20.10
2018-07-15T00:20:16.074Z,20.10
2018-07-15T00:22:44.572Z,20.10
2018-07-15T00:25:13.095Z,20.00
2018-07-15T00:30:10.562Z,19.90
2018-07-15T00:32:39.345Z,19.90
2018-07-15T00:35:07.849Z,19.90
2018-07-15T00:37:36.460Z,19.80
2018-07-15T00:40:04.977Z,19.80
2018-07-15T00:42:33.493Z,19.70
2018-07-15T00:45:04.745Z,19.70
2018-07-15T00:47:33.269Z,19.60
2018-07-15T00:50:02.773Z,19.60
2018-07-15T00:52:31.325Z,19.60
2018-07-15T00:55:00.249Z,19.60
2018-07-15T00:57:28.796Z,19.60
2018-07-15T00:59:57.391Z,19.50
2018-07-15T01:02:27.243Z,19.50
2018-07-15T01:04:55.932Z,19.50
2018-07-15T01:07:24.479Z,19.50
2018-07-15T01:09:53.234Z,19.50
2018-07-15T01:12:21.753Z,19.40
2018-07-15T01:14:50.389Z,19.50
2018-07-15T01:17:19.026Z,19.50
2018-07-15T01:19:48.063Z,19.40
2018-07-15T01:22:16.605Z,19.40
2018-07-15T01:24:45.132Z,19.40
2018-07-15T01:27:13.649Z,19.30
2018-07-15T01:29:42.173Z,19.30
2018-07-15T01:32:10.748Z,19.20
2018-07-15T01:34:39.328Z,19.20
2018-07-15T01:37:07.830Z,19.20
2018-07-15T01:39:36.440Z,19.20
2018-07-15T01:42:04.964Z,19.10
2018-07-15T01:44:33.487Z,19.20
2018-07-15T01:47:02.034Z,19.20
2018-07-15T01:49:31.099Z,19.20
2018-07-15T01:52:00.031Z,19.10
2018-07-15T01:54:28.549Z,19.00
2018-07-15T01:56:57.069Z,19.10
2018-07-15T01:59:25.617Z,19.00
2018-07-15T02:04:22.589Z,19.00
2018-07-15T02:06:51.155Z,19.10
2018-07-15T02:09:19.927Z,19.00
2018-07-15T02:11:49.297Z,19.00
2018-07-15T02:14:18.397Z,19.00
2018-07-15T02:16:46.929Z,19.00
2018-07-15T02:19:16.136Z,19.00
2018-07-15T02:21:44.914Z,19.00
2018-07-15T02:24:13.482Z,18.90
2018-07-15T02:26:42.229Z,18.90
2018-07-15T02:29:10.773Z,18.90
2018-07-15T02:31:39.521Z,18.90
2018-07-15T02:34:09.314Z,18.80
2018-07-15T02:36:38.062Z,18.80
2018-07-15T02:39:07.902Z,18.80
2018-07-15T02:41:36.542Z,18.80
2018-07-15T02:44:05.607Z,18.80
2018-07-15T02:46:34.284Z,18.70
2018-07-15T02:49:02.849Z,18.70
2018-07-15T02:51:31.378Z,18.70
2018-07-15T02:53:59.899Z,18.60
2018-07-15T02:56:28.512Z,18.60
2018-07-15T02:58:57.077Z,18.60
2018-07-15T03:01:25.634Z,18.60
2018-07-15T03:03:54.165Z,18.50
2018-07-15T03:06:22.688Z,18.50
2018-07-15T03:08:51.240Z,18.50
2018-07-15T03:11:20.337Z,18.50
2018-07-15T03:13:49.898Z,18.50
2018-07-15T03:18:47.565Z,18.50
2018-07-15T03:21:16.098Z,18.50
2018-07-15T03:23:44.612Z,18.40
2018-07-15T03:26:13.180Z,18.40
2018-07-15T03:28:41.697Z,18.40
2018-07-15T03:31:10.193Z,18.40
2018-07-15T03:33:38.694Z,18.40
2018-07-15T03:36:07.234Z,18.30
2018-07-15T03:38:35.807Z,18.30
2018-07-15T03:41:04.321Z,18.30
2018-07-15T03:43:32.973Z,18.30
2018-07-15T03:46:01.478Z,18.30
2018-07-15T03:48:30.014Z,18.30
2018-07-15T03:50:58.557Z,18.20
2018-07-15T03:53:27.071Z,18.20
2018-07-15T03:55:55.585Z,18.20
2018-07-15T03:58:24.090Z,18.10
2018-07-15T04:00:52.681Z,18.10
2018-07-15T04:03:21.217Z,18.10
2018-07-15T04:05:50.334Z,18.10
2018-07-15T04:08:19.673Z,18.10
2018-07-15T04:10:48.798Z,18.10
2018-07-15T04:13:17.339Z,18.10
2018-07-15T04:15:46.144Z,18.00
2018-07-15T04:18:14.657Z,18.00
2018-07-15T04:20:43.176Z,18.00
2018-07-15T04:23:11.706Z,18.00
2018-07-15T04:25:40.671Z,21.00
2018-07-15T04:28:09.248Z,17.90
2018-07-15T04:30:37.763Z,17.90
2018-07-15T04:33:06.274Z,17.90
2018-07-15T04:35:34.825Z,17.80
2018-07-15T04:38:04.038Z,17.90
2018-07-15T04:40:33.213Z,17.80
2018-07-15T04:43:01.725Z,17.80
2018-07-15T04:45:30.241Z,17.90
2018-07-15T04:47:58.745Z,17.90
2018-07-15T04:50:27.267Z,17.90
2018-07-15T04:52:55.808Z,17.90
2018-07-15T04:55:24.337Z,17.80
2018-07-15T04:57:52.894Z,17.90
2018-07-15T05:00:21.413Z,17.90
2018-07-15T05:02:49.938Z,17.90
2018-07-15T05:05:18.605Z,17.90
2018-07-15T05:07:47.413Z,17.90
2018-07-15T05:10:15.961Z,17.90
2018-07-15T05:12:44.503Z,17.90
2018-07-15T05:15:13.029Z,17.90
2018-07-15T05:17:42.514Z,17.90
2018-07-15T05:20:11.043Z,17.90
2018-07-15T05:22:39.554Z,18.00
2018-07-15T05:25:08.125Z,18.00
2018-07-15T05:27:36.653Z,18.00
2018-07-15T05:30:05.562Z,18.00
2018-07-15T05:32:35.037Z,18.00
2018-07-15T05:35:03.639Z,18.10
2018-07-15T05:37:32.077Z,18.00
2018-07-15T05:40:00.591Z,18.10
2018-07-15T05:42:29.398Z,18.10
2018-07-15T05:44:58.277Z,18.10
2018-07-15T05:47:26.769Z,18.20
2018-07-15T05:49:55.317Z,18.20
2018-07-15T05:52:23.837Z,18.20
2018-07-15T05:54:52.373Z,18.20
2018-07-15T05:57:20.980Z,18.30
2018-07-15T05:59:49.498Z,18.30
2018-07-15T06:02:18.285Z,18.30
2018-07-15T06:04:46.782Z,18.30
2018-07-15T06:07:15.515Z,18.30
2018-07-15T06:09:44.017Z,18.40
2018-07-15T06:12:12.554Z,18.40
2018-07-15T06:14:41.075Z,18.40
2018-07-15T06:17:10.319Z,18.50
2018-07-15T06:19:39.480Z,18.50
2018-07-15T06:22:08.444Z,18.60
2018-07-15T06:24:37.122Z,18.60
2018-07-15T06:27:06.230Z,18.70
2018-07-15T06:29:34.790Z,18.80
2018-07-15T06:32:04.162Z,18.80
2018-07-15T06:34:32.791Z,18.90
2018-07-15T06:37:01.572Z,18.90
2018-07-15T06:39:30.082Z,19.00
2018-07-15T06:41:58.863Z,19.00
2018-07-15T06:44:27.440Z,19.00
2018-07-15T06:46:56.547Z,19.10
2018-07-15T06:49:25.666Z,19.20
2018-07-15T06:51:54.326Z,19.20
2018-07-15T06:54:23.460Z,19.30
2018-07-15T06:56:52.020Z,19.40
2018-07-15T06:59:20.613Z,19.40
2018-07-15T07:01:49.371Z,19.50
2018-07-15T07:04:17.949Z,19.60
2018-07-15T07:06:46.447Z,19.70
2018-07-15T07:09:14.994Z,19.80
2018-07-15T07:11:43.530Z,19.80
2018-07-15T07:14:12.100Z,19.90
2018-07-15T07:16:41.598Z,20.00
2018-07-15T07:19:10.121Z,20.10
2018-07-15T07:21:38.664Z,20.20
2018-07-15T07:24:07.256Z,20.30
2018-07-15T07:26:35.785Z,20.40
2018-07-15T07:29:04.363Z,20.50
2018-07-15T07:31:32.882Z,20.60
2018-07-15T07:34:01.440Z,20.70
2018-07-15T07:36:30.053Z,20.80
2018-07-15T07:38:58.606Z,21.00
2018-07-15T07:41:27.528Z,21.20
2018-07-15T07:43:56.890Z,21.30
2018-07-15T07:46:25.477Z,21.50
2018-07-15T07:48:54.827Z,21.70
2018-07-15T07:51:23.366Z,21.80
2018-07-15T07:53:51.887Z,21.90
2018-07-15T07:56:21.309Z,21.90
2018-07-15T07:58:49.929Z,22.10
2018-07-15T08:01:19.471Z,22.20
2018-07-15T08:03:48.085Z,22.30
2018-07-15T08:06:16.589Z,22.40
2018-07-15T08:08:45.609Z,22.50
2018-07-15T08:11:14.181Z,22.60
2018-07-15T08:13:42.687Z,22.70
2018-07-15T08:16:11.249Z,22.80
2018-07-15T08:18:39.753Z,22.80
2018-07-15T08:21:08.735Z,22.90
2018-07-15T08:23:37.641Z,23.00
2018-07-15T08:26:06.174Z,23.10
2018-07-15T08:28:34.790Z,23.30
2018-07-15T08:31:08.114Z,23.40
2018-07-15T08:33:36.660Z,23.50
2018-07-15T08:36:05.242Z,23.60
2018-07-15T08:41:01.989Z,23.70
2018-07-15T08:43:30.706Z,23.80
2018-07-15T08:45:59.833Z,23.90
2018-07-15T08:48:29.207Z,24.00
2018-07-15T08:50:57.731Z,24.00
2018-07-15T08:53:26.273Z,24.10
2018-07-15T08:55:55.006Z,24.20
2018-07-15T08:58:24.834Z,24.40
2018-07-15T09:00:54.785Z,24.50
2018-07-15T09:03:23.913Z,24.60
2018-07-15T09:05:53.055Z,24.70
2018-07-15T09:08:21.625Z,24.80
2018-07-15T09:10:50.699Z,24.80
2018-07-15T09:13:19.493Z,24.90
2018-07-15T09:15:48.271Z,25.00
2018-07-15T09:18:16.811Z,25.10
2018-07-15T09:20:46.268Z,25.10
2018-07-15T09:23:15.662Z,25.20
2018-07-15T09:25:44.905Z,25.40
2018-07-15T09:28:13.815Z,25.50
2018-07-15T09:30:42.325Z,25.60
2018-07-15T09:33:10.849Z,25.60
2018-07-15T09:35:39.443Z,25.70
2018-07-15T09:38:08.351Z,25.80
2018-07-15T09:40:36.871Z,25.80
2018-07-15T09:43:05.681Z,25.80
2018-07-15T09:45:35.006Z,25.90
2018-07-15T09:48:04.894Z,25.90
2018-07-15T09:50:33.936Z,26.00
2018-07-15T09:53:03.758Z,26.10
2018-07-15T09:55:33.514Z,26.20
2018-07-15T09:58:02.090Z,26.30
2018-07-15T10:00:36.186Z,26.40
2018-07-15T10:03:04.704Z,26.50
2018-07-15T10:05:33.201Z,26.50
2018-07-15T10:08:01.746Z,26.50
2018-07-15T10:10:31.178Z,26.50
2018-07-15T10:12:59.725Z,26.50
2018-07-15T10:15:28.241Z,26.40
2018-07-15T10:17:56.745Z,26.50
2018-07-15T10:20:25.895Z,26.60
2018-07-15T10:22:54.411Z,26.80
2018-07-15T10:25:22.962Z,26.80
2018-07-15T10:27:51.477Z,26.90
2018-07-15T10:30:19.986Z,27.00
2018-07-15T10:32:49.135Z,27.20
2018-07-15T10:35:17.678Z,27.30
2018-07-15T10:37:46.222Z,27.40
2018-07-15T10:40:14.776Z,27.40
2018-07-15T10:42:43.336Z,27.50
2018-07-15T10:45:12.045Z,27.60
2018-07-15T10:47:40.574Z,27.70
2018-07-15T10:50:09.807Z,27.80
2018-07-15T10:52:38.562Z,27.80
2018-07-15T10:55:07.692Z,27.90
2018-07-15T10:57:36.338Z,28.00
2018-07-15T11:02:33.910Z,28.10
2018-07-15T11:05:03.213Z,28.20
2018-07-15T11:07:31.767Z,28.30
2018-07-15T11:10:00.964Z,28.30
2018-07-15T11:12:29.508Z,28.20
2018-07-15T11:14:58.189Z,28.10
2018-07-15T11:17:26.776Z,28.20
2018-07-15T11:19:55.281Z,28.30
2018-07-15T11:22:23.814Z,28.50
2018-07-15T11:24:52.370Z,28.60
2018-07-15T11:27:20.934Z,28.70
2018-07-15T11:29:50.137Z,28.80
2018-07-15T11:32:18.669Z,28.80
2018-07-15T11:34:47.186Z,28.70
2018-07-15T11:37:16.362Z,28.80
2018-07-15T11:39:45.587Z,28.70
2018-07-15T11:42:14.289Z,28.90
2018-07-15T11:44:43.438Z,29.10
2018-07-15T11:47:11.980Z,29.10
2018-07-15T11:49:40.730Z,29.20
2018-07-15T11:52:09.267Z,29.30
2018-07-15T11:54:37.890Z,29.40
2018-07-15T11:57:06.330Z,29.50
2018-07-15T11:59:34.874Z,29.60
2018-07-15T12:02:03.592Z,29.70
2018-07-15T12:04:32.018Z,29.80
2018-07-15T12:07:00.553Z,29.90
2018-07-15T12:09:29.137Z,30.00
2018-07-15T12:11:57.655Z,30.10
2018-07-15T12:14:26.169Z,30.10
2018-07-15T12:16:54.745Z,30.20
2018-07-15T12:19:23.302Z,30.20
2018-07-15T12:21:51.937Z,30.40
2018-07-15T12:24:20.460Z,30.30
2018-07-15T12:26:48.969Z,30.40
2018-07-15T12:29:17.530Z,30.60
2018-07-15T12:31:46.051Z,30.70
2018-07-15T12:34:16.076Z,30.70
2018-07-15T12:36:45.573Z,30.70
2018-07-15T12:39:14.225Z,30.60
2018-07-15T12:41:42.770Z,30.60
2018-07-15T12:44:11.394Z,30.70
2018-07-15T12:49:08.781Z,30.70
2018-07-15T12:51:37.970Z,30.80
2018-07-15T12:54:07.978Z,30.80
2018-07-15T12:59:05.018Z,30.80
2018-07-15T13:01:34.630Z,30.90
2018-07-15T13:04:04.739Z,31.10
2018-07-15T13:06:33.366Z,31.20
2018-07-15T13:11:33.817Z,32.00
2018-07-15T13:14:02.647Z,30.70
2018-07-15T13:16:31.255Z,30.60
2018-07-15T13:19:00.281Z,30.70
2018-07-15T13:21:29.101Z,30.90
2018-07-15T13:23:57.593Z,31.00
2018-07-15T13:26:26.710Z,31.30
2018-07-15T13:28:56.223Z,31.30
2018-07-15T13:31:25.065Z,31.40
2018-07-15T13:33:53.569Z,31.40
2018-07-15T13:36:22.095Z,31.40
2018-07-15T13:38:50.858Z,31.40
2018-07-15T13:41:19.500Z,31.40
2018-07-15T13:43:48.197Z,31.50
2018-07-15T13:46:17.676Z,31.50
2018-07-15T13:48:46.309Z,31.50
2018-07-15T13:51:14.922Z,31.50
2018-07-15T13:53:43.534Z,31.40
2018-07-15T13:56:12.387Z,31.30
2018-07-15T13:59:43.475Z,31.30
2018-07-15T14:02:12.002Z,31.30
2018-07-15T14:04:41.386Z,31.20
2018-07-15T14:07:09.906Z,31.20
2018-07-15T14:09:38.904Z,31.10
2018-07-15T14:12:08.394Z,31.10
2018-07-15T14:14:37.512Z,31.10
2018-07-15T14:19:34.349Z,30.90
2018-07-15T14:22:02.897Z,30.80
2018-07-15T14:24:31.549Z,30.70
2018-07-15T14:27:00.066Z,30.60
2018-07-15T14:29:29.050Z,30.40
2018-07-15T14:31:58.693Z,30.30
2018-07-15T14:34:27.218Z,30.20
2018-07-15T14:36:55.766Z,30.10
2018-07-15T14:39:33.122Z,30.10
2018-07-15T14:42:02.137Z,29.90
2018-07-15T14:44:30.648Z,29.80
2018-07-15T14:46:59.991Z,29.60
2018-07-15T14:49:29.101Z,29.50
2018-07-15T14:51:57.621Z,29.40
2018-07-15T14:54:26.140Z,29.50
2018-07-15T14:56:54.927Z,29.40
2018-07-15T14:59:23.744Z,29.40
2018-07-15T15:01:52.718Z,29.30
2018-07-15T15:04:21.850Z,29.30
2018-07-15T15:06:50.460Z,29.20
2018-07-15T15:09:18.955Z,29.00
2018-07-15T15:11:47.461Z,28.80
2018-07-15T15:14:15.969Z,28.70
2018-07-15T15:16:44.597Z,28.60
2018-07-15T15:19:13.329Z,28.60
2018-07-15T15:21:41.858Z,28.70
2018-07-15T15:24:10.357Z,28.60
2018-07-15T15:26:38.857Z,28.60
2018-07-15T15:29:07.960Z,28.50
2018-07-15T15:31:36.522Z,28.50
2018-07-15T15:34:06.222Z,28.50
2018-07-15T15:36:34.732Z,28.50
2018-07-15T15:39:04.761Z,28.50
2018-07-15T15:41:33.269Z,28.50
2018-07-15T15:44:01.793Z,28.50
2018-07-15T15:46:30.294Z,28.50
2018-07-15T15:48:58.802Z,28.50
2018-07-15T15:51:27.318Z,28.50
2018-07-15T15:53:55.871Z,28.50
2018-07-15T15:56:24.413Z,28.40
2018-07-15T15:58:52.917Z,28.40
2018-07-15T16:01:21.413Z,28.40
2018-07-15T16:03:49.901Z,28.40
2018-07-15T16:06:18.658Z,28.30
2018-07-15T16:08:47.208Z,28.30
2018-07-15T16:11:15.704Z,28.20
2018-07-15T16:13:44.196Z,28.20
2018-07-15T16:16:12.685Z,28.10
2018-07-15T16:18:41.182Z,28.10
2018-07-15T16:21:09.733Z,28.10
2018-07-15T16:23:38.233Z,28.00
2018-07-15T16:26:07.079Z,28.00
2018-07-15T16:28:35.709Z,28.00
2018-07-15T16:31:04.881Z,27.90
2018-07-15T16:33:33.837Z,27.90
2018-07-15T16:36:02.877Z,27.90
2018-07-15T16:38:34.413Z,27.90
2018-07-15T16:41:03.053Z,27.80
2018-07-15T16:43:40.938Z,27.80
2018-07-15T16:46:22.618Z,27.80
2018-07-15T16:48:56.405Z,27.70
2018-07-15T16:51:27.958Z,27.70
2018-07-15T16:53:56.510Z,27.70
2018-07-15T16:56:25.060Z,27.70
2018-07-15T16:58:53.577Z,27.70
2018-07-15T17:01:22.118Z,27.60
2018-07-15T17:03:53.494Z,27.60
2018-07-15T17:06:22.085Z,27.60
2018-07-15T17:08:50.594Z,27.60
2018-07-15T17:11:19.125Z,27.50
2018-07-15T17:13:47.742Z,27.50
2018-07-15T17:16:16.251Z,27.50
2018-07-15T17:18:45.104Z,27.50
2018-07-15T17:21:13.645Z,27.40
2018-07-15T17:23:42.173Z,27.50
2018-07-15T17:26:11.629Z,27.40
2018-07-15T17:28:40.546Z,27.40
2018-07-15T17:31:11.070Z,27.40
2018-07-15T17:33:39.651Z,27.40
2018-07-15T17:36:13.934Z,27.40
2018-07-15T17:38:43.210Z,27.40
2018-07-15T17:41:11.833Z,27.40
2018-07-15T17:43:42.174Z,27.30
2018-07-15T17:46:10.783Z,27.30
2018-07-15T17:48:40.308Z,27.30
2018-07-15T17:51:08.911Z,27.30
2018-07-15T17:53:37.910Z,27.30
2018-07-15T17:56:06.486Z,27.30
2018-07-15T17:58:35.091Z,27.30
2018-07-15T18:01:03.566Z,27.30
2018-07-15T18:03:33.439Z,27.20
2018-07-15T18:06:02.011Z,27.20
2018-07-15T18:08:30.534Z,27.20
2018-07-15T18:10:59.551Z,27.10
2018-07-15T18:13:28.137Z,27.10
2018-07-15T18:15:56.653Z,27.10
2018-07-15T18:18:25.190Z,27.10
2018-07-15T18:20:53.744Z,27.00
2018-07-15T18:23:23.090Z,27.00
2018-07-15T18:25:52.299Z,27.00
2018-07-15T18:28:38.576Z,26.90
2018-07-15T18:31:07.105Z,26.90
2018-07-15T18:33:35.618Z,26.90
2018-07-15T18:36:05.440Z,26.90
2018-07-15T18:41:04.085Z,26.80
2018-07-15T18:43:32.686Z,26.80
2018-07-15T18:46:11.471Z,26.80
2018-07-15T18:51:08.309Z,26.70
2018-07-15T18:53:36.917Z,26.70
2018-07-15T18:56:05.611Z,26.60
2018-07-15T18:58:34.174Z,26.60
2018-07-15T19:01:02.749Z,26.50
2018-07-15T19:03:32.206Z,26.50
2018-07-15T19:06:00.777Z,26.50
2018-07-15T19:08:29.549Z,26.40
2018-07-15T19:10:58.098Z,26.40
2018-07-15T19:13:28.372Z,26.40
2018-07-15T19:15:58.494Z,26.30
2018-07-15T19:18:27.102Z,26.20
2018-07-15T19:20:55.597Z,26.20
2018-07-15T19:36:46.285Z,26.00
2018-07-15T19:39:16.592Z,25.50
2018-07-15T19:41:46.006Z,25.50
2018-07-15T19:44:16.737Z,25.50
2018-07-15T19:46:46.796Z,25.50
2018-07-15T19:49:16.349Z,25.40
2018-07-15T19:51:44.881Z,25.30
2018-07-15T19:54:13.751Z,25.30
2018-07-15T19:56:42.261Z,25.20
2018-07-15T19:59:11.997Z,25.20
2018-07-15T20:01:55.610Z,25.10
2018-07-15T20:04:24.459Z,25.10
2018-07-15T20:06:53.596Z,25.10
2018-07-15T20:09:36.485Z,25.00
2018-07-15T20:12:05.067Z,25.00
2018-07-15T20:14:33.581Z,24.90
2018-07-15T20:17:02.114Z,24.90
2018-07-15T20:19:30.909Z,24.90
2018-07-15T20:22:00.115Z,24.80
2018-07-15T20:24:29.325Z,24.80
2018-07-15T20:26:57.854Z,24.80
2018-07-15T20:29:26.427Z,24.80
2018-07-15T20:31:55.661Z,24.80
2018-07-15T20:34:24.292Z,24.70
2018-07-15T20:36:54.230Z,24.70
2018-07-15T20:39:24.076Z,24.70
2018-07-15T20:41:53.214Z,24.70
2018-07-15T20:44:21.883Z,24.70
2018-07-15T20:46:50.401Z,24.70
2018-07-15T20:49:19.014Z,24.60
2018-07-15T20:51:47.587Z,24.50
2018-07-15T20:54:16.346Z,24.50
2018-07-15T20:58:51.665Z,24.40
2018-07-15T21:01:20.185Z,24.30
2018-07-15T21:03:48.700Z,24.20
2018-07-15T21:06:17.825Z,24.20
2018-07-15T21:08:46.354Z,24.10
2018-07-15T21:11:14.981Z,24.10
2018-07-15T21:13:43.482Z,24.10
2018-07-15T21:16:12.029Z,24.10
2018-07-15T21:18:40.578Z,24.10
2018-07-15T21:21:09.125Z,24.00
2018-07-15T21:23:37.678Z,24.00
2018-07-15T21:26:06.248Z,24.00
2018-07-15T21:28:35.098Z,23.90
2018-07-15T21:31:03.633Z,23.90
2018-07-15T21:33:32.261Z,23.80
2018-07-15T21:36:00.800Z,23.80
2018-07-15T21:38:29.317Z,23.70
2018-07-15T21:40:57.863Z,23.70
2018-07-15T21:43:26.850Z,23.70
2018-07-15T21:45:55.490Z,23.70
2018-07-15T21:48:24.122Z,23.70
2018-07-15T21:50:53.053Z,23.70
2018-07-15T21:53:22.405Z,23.60
2018-07-15T21:55:51.537Z,23.60
2018-07-15T21:58:20.426Z,23.60
2018-07-15T22:00:49.533Z,23.60
2018-07-15T22:03:18.090Z,23.50
2018-07-15T22:05:46.694Z,23.50
2018-07-15T22:08:26.215Z,23.50
2018-07-15T22:10:54.749Z,23.50
2018-07-15T22:15:52.374Z,23.50
2018-07-15T22:18:21.478Z,23.40
2018-07-15T22:20:50.025Z,23.40
2018-07-15T22:23:18.543Z,23.40
2018-07-15T22:25:47.817Z,23.40
2018-07-15T22:28:16.849Z,23.40
2018-07-15T22:30:46.222Z,23.30
2018-07-15T22:33:15.167Z,23.30
2018-07-15T22:35:43.662Z,23.30
2018-07-15T22:38:12.213Z,23.30
2018-07-15T22:40:40.767Z,23.20
2018-07-15T22:43:09.321Z,23.20
2018-07-15T22:45:37.866Z,23.20
2018-07-15T22:48:07.065Z,23.20
2018-07-15T22:50:35.581Z,23.20
2018-07-15T22:53:04.119Z,23.20
2018-07-15T22:55:32.657Z,23.20
2018-07-15T22:58:01.178Z,23.10
2018-07-15T23:00:29.689Z,23.10
2018-07-15T23:02:58.186Z,23.00
2018-07-15T23:05:55.341Z,23.00
2018-07-15T23:10:53.042Z,23.00
2018-07-15T23:13:21.657Z,23.00
2018-07-15T23:15:50.641Z,23.00
2018-07-15T23:18:19.290Z,22.90
2018-07-15T23:20:48.386Z,22.90
2018-07-15T23:23:17.428Z,22.90
2018-07-15T23:25:46.061Z,22.90
2018-07-15T23:28:15.715Z,22.80
2018-07-15T23:30:44.598Z,22.80
2018-07-15T23:33:18.271Z,22.80
2018-07-15T23:38:15.069Z,22.70
2018-07-15T23:40:43.569Z,22.60
2018-07-15T23:43:12.682Z,22.60
2018-07-15T23:45:41.201Z,22.50
2018-07-15T23:48:09.770Z,22.50
2018-07-15T23:53:07.061Z,22.50
2018-07-15T23:55:35.576Z,22.50
2018-07-15T23:58:04.100Z,22.50
